Big Spring, Kentucky
Current Conditions -  °F | °C
As of 11:58 PM on Saturday 20 Dec 2014 (Local Time) from KFTK Reporting Station
Clear Clear  
Wind Chill: 20°   Ceiling: Unl
Heat Index: 26°   Visibility: 10mi
Dew Point: 23°   Wind: 6mph
Humidity: 89%   Direction: 20°NNE
Pressure: 30.27"   Gusts: NA
Location:  37.8°N, 86.15°W
Report Text: KFTK 210458Z AUTO 02005KT 10SM CLR M03/M05 A3027 RMK AO2 SLP261 T10321048 400341036
Loading
Personal Weather Stations






























Interactive Weather Map New forecast layout! Learn more

10-Day Weather Forecast

Advertisements
Track Severe Weather on mobile